Time;durP1;ratioP1;P1;durP2;ratioP2;P2;SDS_P1;SDS_P2;PMS_P1;PMS_P2;Temp;Humidity;BMP_temperature;BMP_pressure;BME280_temperature;BME280_humidity;BME280_pressure;Samples;Min_cycle;Max_cycle;Signal;HPM_P1;HPM_P2
2021/12/30 00:01:46;;;;;;;;;;;10.80;99.90;;;9.97;100.00;95320.59;10284095;28;1817;-77
2021/12/30 00:06:50;;;;;;;;;;;10.90;99.90;;;9.94;100.00;95327.34;10278078;28;1993;-76
2021/12/30 00:11:53;;;;;;;;;;;10.90;99.90;;;9.92;100.00;95356.31;10282431;28;1913;-76
2021/12/30 00:17:15;;;;;;;;;;;11.00;99.90;;;9.91;100.00;95361.97;10283659;28;1910;-76
2021/12/30 00:22:18;;;;;;;;;;;10.90;99.90;;;9.90;100.00;95379.19;10316627;28;1797;-77
2021/12/30 00:27:21;;;;;;;;;;;10.90;99.90;;;9.97;100.00;95379.66;10293805;28;1824;-77
2021/12/30 00:32:24;;;;;;;;;;;10.90;99.90;;;9.91;100.00;95402.25;10283065;28;1856;-77
2021/12/30 00:37:27;;;;;;;;;;;10.90;99.90;;;9.88;100.00;95402.81;10281085;28;1974;-78
2021/12/30 00:42:30;;;;;;;;;;;10.90;99.90;;;9.89;100.00;95399.06;10282455;28;1830;-77
2021/12/30 00:47:34;;;;;;;;;;;10.80;99.90;;;9.92;100.00;95403.84;10281011;28;1821;-77
2021/12/30 00:52:38;;;;;;;;;;;11.00;99.90;;;9.97;100.00;95411.88;10280294;28;1810;-78
2021/12/30 00:57:42;;;;;;;;;;;11.00;99.90;;;10.02;100.00;95419.91;10280746;28;1923;-77
2021/12/30 01:02:46;;;;;;;;;;;11.00;99.90;;;10.02;100.00;95430.66;10281355;28;1905;-77
2021/12/30 01:07:49;;;;;;;;;;;11.00;99.90;;;10.02;100.00;95436.81;10280573;28;1771;-77
2021/12/30 01:12:53;;;;;;;;;;;11.00;99.90;;;9.93;100.00;95443.06;10279635;28;1852;-76
2021/12/30 01:18:09;;;;;;;;;;;11.00;99.90;;;9.93;100.00;95448.44;10279478;28;1902;-78
2021/12/30 01:23:12;;;;;;;;;;;10.90;99.90;;;9.95;100.00;95468.56;10281458;28;1861;-76
2021/12/30 01:28:16;;;;;;;;;;;11.00;99.90;;;10.01;100.00;95482.75;10272606;28;1885;-76
2021/12/30 01:33:20;;;;;;;;;;;11.00;99.90;;;10.02;100.00;95489.72;10279689;28;1791;-78
2021/12/30 01:38:23;;;;;;;;;;;11.00;99.90;;;10.14;100.00;95498.25;10279517;28;1914;-78
2021/12/30 01:43:27;;;;;;;;;;;11.10;99.90;;;10.12;100.00;95487.00;10283304;28;1813;-78
2021/12/30 01:48:30;;;;;;;;;;;11.10;99.90;;;10.11;100.00;95496.09;10282857;28;1972;-79
2021/12/30 01:53:34;;;;;;;;;;;11.10;99.90;;;10.10;100.00;95499.88;10280247;28;1866;-78
2021/12/30 01:58:37;;;;;;;;;;;11.10;99.90;;;10.09;100.00;95506.34;10281287;28;2034;-78
2021/12/30 02:03:41;;;;;;;;;;;11.10;99.90;;;10.16;100.00;95514.09;10280848;28;1813;-78
2021/12/30 02:08:45;;;;;;;;;;;11.20;99.90;;;10.17;100.00;95524.56;10300368;23;3569;-72
2021/12/30 02:13:48;;;;;;;;;;;11.20;99.90;;;10.33;100.00;95538.75;10324381;28;1979;-70
2021/12/30 02:18:52;;;;;;;;;;;11.30;99.90;;;10.28;100.00;95542.25;10317437;28;1971;-70
2021/12/30 02:23:57;;;;;;;;;;;11.30;99.90;;;10.17;100.00;95543.34;10323848;28;1872;-71
2021/12/30 02:29:00;;;;;;;;;;;11.30;99.90;;;10.12;100.00;95546.09;10323914;28;1820;-71
2021/12/30 02:34:04;;;;;;;;;;;11.20;99.90;;;10.03;100.00;95543.16;10325566;28;1789;-70
2021/12/30 02:39:07;;;;;;;;;;;11.10;99.90;;;10.09;100.00;95538.56;10345624;28;2277;-70
2021/12/30 02:44:11;;;;;;;;;;;11.10;99.90;;;10.18;100.00;95549.53;10327634;28;1750;-71
2021/12/30 02:49:15;;;;;;;;;;;11.10;99.90;;;10.25;100.00;95569.69;10325455;28;1798;-71
2021/12/30 02:54:18;;;;;;;;;;;11.20;99.90;;;10.25;100.00;95579.63;10322002;28;1833;-71
2021/12/30 02:59:22;;;;;;;;;;;11.30;99.90;;;10.38;100.00;95581.72;10328127;28;1922;-70
2021/12/30 03:04:26;;;;;;;;;;;11.30;99.90;;;10.44;100.00;95604.00;10324184;28;1873;-71
2021/12/30 03:09:30;;;;;;;;;;;11.40;99.90;;;10.47;100.00;95603.44;10327937;28;1773;-71
2021/12/30 03:14:33;;;;;;;;;;;11.40;99.90;;;10.52;100.00;95611.47;10323735;28;1869;-70
2021/12/30 03:19:38;;;;;;;;;;;11.60;99.90;;;10.50;100.00;95625.19;10327144;28;1919;-70
2021/12/30 03:24:42;;;;;;;;;;;11.50;99.90;;;10.43;100.00;95631.91;10321600;28;1753;-70
2021/12/30 03:29:49;;;;;;;;;;;11.50;99.90;;;10.31;100.00;95655.63;10325964;28;1845;-71
2021/12/30 03:34:53;;;;;;;;;;;11.30;99.90;;;10.24;100.00;95659.44;10326784;28;1773;-73
2021/12/30 03:39:56;;;;;;;;;;;11.20;99.90;;;10.19;100.00;95667.47;10325547;28;1969;-71
2021/12/30 03:45:02;;;;;;;;;;;11.20;99.90;;;10.19;100.00;95666.66;10325158;28;1908;-71
2021/12/30 03:50:05;;;;;;;;;;;11.10;99.90;;;10.14;100.00;95670.16;10330328;28;1809;-71
2021/12/30 03:55:09;;;;;;;;;;;11.10;99.90;;;10.16;100.00;95672.56;10322119;28;1910;-70
2021/12/30 04:00:12;;;;;;;;;;;11.10;99.90;;;10.14;100.00;95691.66;10317146;28;2352;-70
2021/12/30 04:05:15;;;;;;;;;;;11.10;99.90;;;10.10;100.00;95701.31;10321636;28;2060;-70
2021/12/30 04:10:21;;;;;;;;;;;11.10;99.90;;;10.06;100.00;95705.63;10320585;28;2008;-70
2021/12/30 04:15:24;;;;;;;;;;;11.00;99.90;;;10.03;100.00;95716.91;10312324;28;2044;-70
2021/12/30 04:20:27;;;;;;;;;;;11.00;99.90;;;10.01;100.00;95727.13;10318038;28;2129;-71
2021/12/30 04:25:31;;;;;;;;;;;11.00;99.90;;;10.03;100.00;95741.06;10322897;28;2015;-71
2021/12/30 04:30:34;;;;;;;;;;;11.00;99.90;;;10.08;100.00;95753.69;10324338;28;1951;-71
2021/12/30 04:35:37;;;;;;;;;;;11.00;99.90;;;9.99;100.00;95753.44;10324053;28;1962;-69
2021/12/30 04:40:40;;;;;;;;;;;11.00;99.90;;;9.93;100.00;95766.06;10324492;28;1918;-70
2021/12/30 04:45:46;;;;;;;;;;;11.00;99.90;;;9.95;100.00;95763.91;10324383;28;1902;-69
2021/12/30 04:50:50;;;;;;;;;;;11.00;99.90;;;9.93;100.00;95773.31;10323014;28;1906;-71
2021/12/30 04:55:53;;;;;;;;;;;10.90;99.90;;;9.90;100.00;95787.28;10317311;28;2082;-69
2021/12/30 05:00:56;;;;;;;;;;;10.90;99.90;;;9.90;100.00;95800.69;10323381;28;1770;-70
2021/12/30 05:06:01;;;;;;;;;;;10.90;99.90;;;9.87;100.00;95809.31;10323393;28;1912;-70
2021/12/30 05:11:05;;;;;;;;;;;10.90;99.90;;;9.86;100.00;95815.72;10322498;28;1923;-71
2021/12/30 05:16:08;;;;;;;;;;;10.90;99.90;;;9.96;100.00;95832.66;10323669;28;1981;-71
2021/12/30 05:21:12;;;;;;;;;;;11.00;99.90;;;9.97;100.00;95836.94;10316637;28;2037;-70
2021/12/30 05:26:16;;;;;;;;;;;11.00;99.90;;;9.96;100.00;95829.16;10305614;28;2213;-70
2021/12/30 05:31:19;;;;;;;;;;;11.10;99.90;;;9.90;100.00;95835.59;10319539;28;2083;-70
2021/12/30 05:36:22;;;;;;;;;;;11.00;99.90;;;9.88;100.00;95845.81;10319994;28;1945;-71
2021/12/30 05:41:26;;;;;;;;;;;10.90;99.90;;;9.92;100.00;95844.19;10325074;28;1871;-71
2021/12/30 05:46:30;;;;;;;;;;;11.00;99.90;;;9.96;100.00;95864.06;10320584;28;1878;-70
2021/12/30 05:51:33;;;;;;;;;;;10.90;99.90;;;10.01;100.00;95864.09;10322508;28;2044;-70
2021/12/30 05:56:36;;;;;;;;;;;11.00;99.90;;;10.08;100.00;95869.19;10318275;28;1910;-70
2021/12/30 06:01:39;;;;;;;;;;;11.10;99.90;;;10.11;100.00;95863.28;10324751;28;1916;-71
2021/12/30 06:06:43;;;;;;;;;;;11.10;99.90;;;10.13;100.00;95878.06;10324397;28;1894;-70
2021/12/30 06:11:47;;;;;;;;;;;11.20;99.90;;;10.17;100.00;95876.44;10314161;28;2072;-71
2021/12/30 06:16:50;;;;;;;;;;;11.20;99.90;;;10.20;100.00;95893.91;10323025;28;2006;-71
2021/12/30 06:21:54;;;;;;;;;;;11.20;99.90;;;10.27;100.00;95889.91;10328593;28;2099;-71
2021/12/30 06:26:57;;;;;;;;;;;11.20;99.90;;;10.31;100.00;95900.09;10329792;28;1887;-71
2021/12/30 06:32:00;;;;;;;;;;;11.30;99.90;;;10.33;100.00;95917.59;10332104;28;2022;-71
2021/12/30 06:37:04;;;;;;;;;;;11.30;99.90;;;10.22;100.00;95906.00;10336608;28;1968;-71
2021/12/30 06:42:07;;;;;;;;;;;11.30;99.90;;;10.17;100.00;95914.03;10340259;28;2197;-71
2021/12/30 06:47:10;;;;;;;;;;;11.30;99.90;;;10.16;100.00;95925.88;10346123;28;1934;-70
2021/12/30 06:52:13;;;;;;;;;;;11.20;99.90;;;10.16;100.00;95920.50;10357686;28;1891;-70
2021/12/30 06:57:17;;;;;;;;;;;11.20;99.90;;;10.19;100.00;95928.03;10366051;28;1882;-69
2021/12/30 07:02:20;;;;;;;;;;;11.30;99.90;;;10.19;100.00;95930.72;10365754;28;1816;-69
2021/12/30 07:07:23;;;;;;;;;;;11.20;99.90;;;10.22;100.00;95938.22;10327894;28;1957;-70
2021/12/30 07:12:26;;;;;;;;;;;11.20;99.90;;;10.25;100.00;95934.25;10327131;28;1915;-68
2021/12/30 07:17:31;;;;;;;;;;;11.20;99.90;;;10.23;100.00;95931.81;10327549;28;1918;-68
2021/12/30 07:22:34;;;;;;;;;;;11.20;99.90;;;10.26;100.00;95933.97;10328191;28;1899;-70
2021/12/30 07:27:45;;;;;;;;;;;11.20;99.90;;;10.28;100.00;95942.56;10327199;28;2075;-71
2021/12/30 07:32:48;;;;;;;;;;;11.30;99.90;;;10.34;100.00;95942.56;10328421;28;2330;-70
2021/12/30 07:37:51;;;;;;;;;;;11.30;99.90;;;10.33;100.00;95947.16;10325614;28;1967;-69
2021/12/30 07:42:55;;;;;;;;;;;11.30;99.90;;;10.33;100.00;95965.16;10323021;28;1879;-70
2021/12/30 07:47:58;;;;;;;;;;;11.30;99.90;;;10.25;100.00;95966.50;10333106;28;2001;-70
2021/12/30 07:53:01;;;;;;;;;;;11.30;99.90;;;10.24;100.00;95959.47;10337256;28;1829;-69
2021/12/30 07:58:04;;;;;;;;;;;11.20;99.90;;;10.26;100.00;95968.09;10330286;28;2121;-70
2021/12/30 08:03:08;;;;;;;;;;;11.20;99.90;;;10.34;100.00;95970.25;10333131;28;1891;-69
2021/12/30 08:08:11;;;;;;;;;;;11.20;99.90;;;10.33;100.00;95968.66;10317012;28;1954;-70
2021/12/30 08:13:15;;;;;;;;;;;11.30;99.90;;;10.36;100.00;95953.84;10341925;22;2007;-76
2021/12/30 08:18:18;;;;;;;;;;;11.20;99.90;;;10.40;100.00;95954.94;10321460;28;1992;-77
2021/12/30 08:23:21;;;;;;;;;;;11.30;99.90;;;10.42;100.00;95950.91;10319360;28;1895;-76
2021/12/30 08:28:25;;;;;;;;;;;11.40;99.90;;;10.48;100.00;95962.47;10321799;28;1878;-77
2021/12/30 08:33:28;;;;;;;;;;;11.40;99.90;;;10.50;100.00;95963.03;10322948;28;1832;-77
2021/12/30 08:38:31;;;;;;;;;;;11.40;99.90;;;10.56;100.00;95961.97;10321152;28;1973;-76
2021/12/30 08:43:35;;;;;;;;;;;11.40;99.90;;;10.61;100.00;95964.63;10317105;28;1819;-77
2021/12/30 08:48:38;;;;;;;;;;;11.50;99.90;;;10.68;100.00;95965.16;10319885;28;1917;-76
2021/12/30 08:53:41;;;;;;;;;;;11.60;99.90;;;10.74;100.00;95984.78;10332108;28;1847;-80
2021/12/30 08:58:47;;;;;;;;;;;11.60;99.90;;;10.77;100.00;95990.44;10329182;28;1911;-76
2021/12/30 09:03:50;;;;;;;;;;;11.70;99.90;;;10.86;100.00;95987.22;10326356;28;1890;-75
2021/12/30 09:08:54;;;;;;;;;;;11.70;99.90;;;10.90;100.00;95996.34;10320269;28;1982;-74
2021/12/30 09:13:57;;;;;;;;;;;11.80;99.90;;;10.96;100.00;95993.41;10319302;28;2500;-75
2021/12/30 09:19:01;;;;;;;;;;;11.90;99.90;;;10.94;100.00;96000.94;10322155;28;1925;-78
2021/12/30 09:24:04;;;;;;;;;;;11.90;99.90;;;10.90;100.00;95999.84;10315572;28;1855;-77
2021/12/30 09:29:10;;;;;;;;;;;11.90;99.90;;;10.86;100.00;96003.34;10319164;28;1903;-77
2021/12/30 09:34:14;;;;;;;;;;;11.80;99.90;;;10.87;100.00;96015.72;10326396;28;1885;-77
2021/12/30 09:39:18;;;;;;;;;;;11.90;99.90;;;10.90;100.00;96018.69;10319879;28;2007;-77
2021/12/30 09:44:22;;;;;;;;;;;11.80;99.90;;;10.94;100.00;96013.56;10318364;28;1869;-78
2021/12/30 09:49:26;;;;;;;;;;;11.90;99.90;;;10.98;100.00;96004.69;10318738;28;1867;-77
2021/12/30 09:54:29;;;;;;;;;;;12.00;99.90;;;11.08;100.00;96001.19;10315912;28;2041;-77
2021/12/30 09:59:34;;;;;;;;;;;12.00;99.90;;;11.14;100.00;95989.34;10319170;28;1986;-76
2021/12/30 10:04:37;;;;;;;;;;;12.00;99.90;;;11.19;100.00;95992.00;10316671;28;1796;-77
2021/12/30 10:09:50;;;;;;;;;;;12.10;99.90;;;11.24;100.00;95983.94;10320168;28;1780;-76
2021/12/30 10:14:54;;;;;;;;;;;12.10;99.90;;;11.40;100.00;95982.03;10316278;28;1902;-78
2021/12/30 10:19:57;;;;;;;;;;;12.20;99.90;;;11.51;100.00;95977.41;10320174;28;1918;-75
2021/12/30 10:25:01;;;;;;;;;;;12.30;99.90;;;11.55;100.00;95989.25;10314001;28;1757;-77
2021/12/30 10:30:08;;;;;;;;;;;12.50;99.90;;;11.71;100.00;95988.13;10322385;28;1926;-75
2021/12/30 10:35:12;;;;;;;;;;;12.60;99.90;;;11.64;100.00;95977.66;10318906;28;1878;-77
2021/12/30 10:40:15;;;;;;;;;;;12.50;99.90;;;11.80;100.00;95970.28;10312827;28;1969;-79
2021/12/30 10:45:18;;;;;;;;;;;12.90;99.90;;;11.94;100.00;95969.72;10313808;28;1769;-75
2021/12/30 10:50:23;;;;;;;;;;;;;;;12.25;100.00;95965.78;10318433;28;1996;-75
2021/12/30 10:55:27;;;;;;;;;;;;;;;12.39;100.00;95976.72;10316072;28;1975;-77
2021/12/30 11:00:31;;;;;;;;;;;;;;;12.54;100.00;95986.63;10316930;28;1989;-77
2021/12/30 11:05:35;;;;;;;;;;;13.30;99.90;;;12.59;100.00;95975.78;10320416;28;1959;-76
2021/12/30 11:10:38;;;;;;;;;;;13.30;99.90;;;12.61;100.00;95979.03;10323022;28;1902;-74
2021/12/30 11:15:42;;;;;;;;;;;13.40;99.90;;;12.74;100.00;95993.75;10315144;28;1898;-76
2021/12/30 11:20:45;;;;;;;;;;;13.60;99.90;;;12.72;100.00;96002.09;10323857;28;1919;-77
2021/12/30 11:25:50;;;;;;;;;;;;;;;12.67;100.00;95999.47;10324047;28;1915;-78
2021/12/30 11:30:53;;;;;;;;;;;;;;;12.74;100.00;95993.75;10324436;28;1859;-78
2021/12/30 11:36:00;;;;;;;;;;;;;;;12.89;100.00;96002.53;10324096;28;1900;-76
2021/12/30 11:41:03;;;;;;;;;;;;;;;12.97;100.00;95999.22;10339875;28;1915;-75
2021/12/30 11:46:06;;;;;;;;;;;13.80;99.90;;;12.75;100.00;95996.16;10323779;28;1826;-75
2021/12/30 11:51:10;;;;;;;;;;;13.80;99.90;;;12.81;100.00;95997.75;10322921;28;1863;-74
2021/12/30 11:56:13;;;;;;;;;;;13.70;99.90;;;13.61;100.00;95999.16;10321050;28;2069;-74
2021/12/30 12:01:17;;;;;;;;;;;14.00;99.90;;;14.01;100.00;96006.00;10322676;28;2012;-71
2021/12/30 12:06:21;;;;;;;;;;;14.50;99.90;;;14.53;96.91;95994.25;10319021;28;1907;-70
2021/12/30 12:11:24;;;;;;;;;;;15.10;99.90;;;14.29;98.01;96002.38;10321628;28;1883;-76
2021/12/30 12:16:27;;;;;;;;;;;15.10;99.90;;;13.47;100.00;96005.25;10323077;28;1862;-76
2021/12/30 12:21:31;;;;;;;;;;;14.80;99.90;;;13.34;100.00;96002.44;10319507;28;2253;-76
2021/12/30 12:26:34;;;;;;;;;;;14.40;99.90;;;13.11;100.00;95999.38;10321967;28;1934;-75
2021/12/30 12:31:38;;;;;;;;;;;14.30;99.90;;;13.00;100.00;96005.94;10321181;28;1863;-75
2021/12/30 12:36:42;;;;;;;;;;;14.10;99.90;;;13.18;100.00;95999.84;10322609;28;1993;-73
2021/12/30 12:41:45;;;;;;;;;;;14.10;99.90;;;13.19;100.00;96003.34;10320934;28;1922;-74
2021/12/30 12:46:49;;;;;;;;;;;14.10;99.90;;;13.17;100.00;95994.75;10314054;28;1784;-73
2021/12/30 12:51:53;;;;;;;;;;;14.10;99.90;;;13.14;100.00;95998.00;10318309;28;1927;-73
2021/12/30 12:56:56;;;;;;;;;;;14.10;99.90;;;13.05;100.00;96003.22;10315883;28;2004;-74
2021/12/30 13:02:00;;;;;;;;;;;14.10;99.90;;;13.33;100.00;96012.41;10316705;28;1923;-77
2021/12/30 13:07:04;;;;;;;;;;;14.10;99.90;;;13.36;100.00;96017.28;10309479;28;2000;-76
2021/12/30 13:12:08;;;;;;;;;;;14.30;99.90;;;13.40;100.00;96021.00;10318986;28;1887;-73
2021/12/30 13:17:11;;;;;;;;;;;14.30;99.90;;;13.35;100.00;96025.63;10320050;28;1919;-75
2021/12/30 13:22:14;;;;;;;;;;;14.30;99.90;;;13.21;100.00;96026.28;10316571;28;1980;-74
2021/12/30 13:27:18;;;;;;;;;;;14.20;99.90;;;13.05;100.00;96026.69;10314470;28;1997;-74
2021/12/30 13:32:41;;;;;;;;;;;14.20;99.90;;;12.98;100.00;96033.22;10318569;28;1890;-73
2021/12/30 13:37:45;;;;;;;;;;;14.10;99.90;;;12.96;100.00;96029.97;10314724;28;1914;-73
2021/12/30 13:42:49;;;;;;;;;;;14.10;99.90;;;13.00;100.00;96035.63;10316737;28;2229;-74
2021/12/30 13:47:52;;;;;;;;;;;14.00;99.90;;;12.92;100.00;96033.53;10322650;28;1954;-75
2021/12/30 13:52:56;;;;;;;;;;;14.00;99.90;;;13.03;100.00;96029.66;10316003;28;2044;-74
2021/12/30 13:58:00;;;;;;;;;;;14.00;99.90;;;13.12;100.00;96025.28;10318471;28;1954;-74
2021/12/30 14:03:03;;;;;;;;;;;14.10;99.90;;;13.12;100.00;96019.88;10319397;28;1838;-74
2021/12/30 14:08:07;;;;;;;;;;;14.10;99.90;;;13.08;100.00;96026.13;10318460;28;1894;-74
2021/12/30 14:13:10;;;;;;;;;;;14.10;99.90;;;12.79;100.00;96026.91;10316919;28;1869;-73
2021/12/30 14:18:14;;;;;;;;;;;14.00;99.90;;;12.61;100.00;96032.97;10310345;28;1911;-74
2021/12/30 14:23:17;;;;;;;;;;;13.80;99.90;;;12.55;100.00;96044.84;10309926;28;1842;-73
2021/12/30 14:28:21;;;;;;;;;;;13.70;99.90;;;12.50;100.00;96042.19;10315731;28;1710;-74
2021/12/30 14:33:24;;;;;;;;;;;13.60;99.90;;;12.49;100.00;96054.06;10314928;28;1903;-73
2021/12/30 14:38:28;;;;;;;;;;;13.60;99.90;;;12.45;100.00;96059.19;10317365;28;1926;-74
2021/12/30 14:43:31;;;;;;;;;;;13.60;99.90;;;12.38;100.00;96054.09;10321169;28;1975;-73
2021/12/30 14:48:35;;;;;;;;;;;13.50;99.90;;;12.34;100.00;96052.22;10325792;28;1840;-73
2021/12/30 14:53:39;;;;;;;;;;;13.40;99.90;;;12.39;100.00;96058.41;10324368;28;1855;-73
2021/12/30 14:58:42;;;;;;;;;;;13.50;99.90;;;12.22;100.00;96054.47;10323314;28;1910;-74
2021/12/30 15:03:45;;;;;;;;;;;13.40;99.90;;;12.28;100.00;96054.19;10325685;28;1805;-75
2021/12/30 15:08:49;;;;;;;;;;;13.40;99.90;;;12.20;100.00;96070.91;10324408;28;1914;-74
2021/12/30 15:13:52;;;;;;;;;;;13.30;99.90;;;12.16;100.00;96072.56;10322948;28;1816;-74
2021/12/30 15:18:56;;;;;;;;;;;13.40;99.90;;;12.08;100.00;96078.50;10325539;28;1929;-72
2021/12/30 15:23:59;;;;;;;;;;;13.30;99.90;;;12.15;100.00;96076.31;10336858;28;1792;-74
2021/12/30 15:29:03;;;;;;;;;;;13.20;99.90;;;12.13;100.00;96078.47;10323979;28;1840;-74
2021/12/30 15:34:06;;;;;;;;;;;13.20;99.90;;;12.15;100.00;96089.78;10314370;28;1839;-75
2021/12/30 15:39:09;;;;;;;;;;;13.20;99.90;;;12.16;100.00;96086.03;10323552;28;1977;-74
2021/12/30 15:44:13;;;;;;;;;;;13.30;99.90;;;12.14;100.00;96083.59;10317119;28;1898;-75
2021/12/30 15:49:17;;;;;;;;;;;13.30;99.90;;;12.17;100.00;96087.63;10321409;28;2280;-74
2021/12/30 15:54:21;;;;;;;;;;;13.30;99.90;;;12.13;100.00;96100.03;10320958;28;1938;-74
2021/12/30 15:59:26;;;;;;;;;;;13.30;99.90;;;12.13;100.00;96105.44;10319463;28;2193;-72
2021/12/30 16:04:30;;;;;;;;;;;13.30;99.90;;;12.14;100.00;96101.66;10321238;28;1893;-74
2021/12/30 16:09:34;;;;;;;;;;;13.20;99.90;;;12.06;100.00;96091.44;10313475;28;1854;-74
2021/12/30 16:14:38;;;;;;;;;;;13.20;99.90;;;12.07;100.00;96093.84;10319210;28;1841;-73
2021/12/30 16:19:41;;;;;;;;;;;13.20;99.90;;;12.04;100.00;96090.94;10315128;28;2069;-74
2021/12/30 16:24:44;;;;;;;;;;;13.10;99.90;;;12.10;100.00;96098.72;10310908;28;1892;-73
2021/12/30 16:29:48;;;;;;;;;;;13.20;99.90;;;12.07;100.00;96101.13;10314895;28;1939;-73
2021/12/30 16:34:52;;;;;;;;;;;13.20;99.90;;;12.07;100.00;96106.53;10318106;28;1957;-74
2021/12/30 16:39:55;;;;;;;;;;;13.20;99.90;;;12.04;100.00;96121.38;10317294;28;1979;-76
2021/12/30 16:44:59;;;;;;;;;;;13.20;99.90;;;12.04;100.00;96105.19;10320840;28;1746;-72
2021/12/30 16:50:02;;;;;;;;;;;13.10;99.90;;;12.03;100.00;96108.97;10312425;28;1832;-72
2021/12/30 16:55:06;;;;;;;;;;;13.10;99.90;;;12.01;100.00;96105.72;10316915;28;1834;-73
2021/12/30 17:00:09;;;;;;;;;;;13.10;99.90;;;12.00;100.00;96114.09;10321815;28;1964;-75
2021/12/30 17:05:12;;;;;;;;;;;13.10;99.90;;;12.03;100.00;96118.94;10316893;28;1762;-75
2021/12/30 17:10:16;;;;;;;;;;;13.10;99.90;;;12.04;100.00;96120.56;10321775;28;1853;-74
2021/12/30 17:15:20;;;;;;;;;;;13.20;99.90;;;11.97;100.00;96120.84;10317701;28;1838;-75
2021/12/30 17:20:23;;;;;;;;;;;13.10;99.90;;;11.98;100.00;96116.28;10317491;28;1923;-74
2021/12/30 17:25:27;;;;;;;;;;;13.10;99.90;;;12.04;100.00;96115.19;10323517;28;1837;-73
2021/12/30 17:30:30;;;;;;;;;;;13.10;99.90;;;12.06;100.00;96118.41;10324740;28;1964;-74
2021/12/30 17:35:37;;;;;;;;;;;13.10;99.90;;;12.07;100.00;96114.59;10318666;28;1893;-74
2021/12/30 17:40:42;;;;;;;;;;;13.10;99.90;;;12.08;100.00;96121.59;10315868;28;1902;-74
2021/12/30 17:45:47;;;;;;;;;;;13.20;99.90;;;12.08;100.00;96116.22;10311702;28;2260;-74
2021/12/30 17:50:53;;;;;;;;;;;13.10;99.90;;;12.11;100.00;96127.28;10312790;28;1872;-72
2021/12/30 17:55:56;;;;;;;;;;;13.20;99.90;;;12.17;100.00;96119.97;10314916;28;1793;-74
2021/12/30 18:01:00;;;;;;;;;;;13.20;99.90;;;12.15;100.00;96130.22;10319920;28;1985;-73
2021/12/30 18:06:04;;;;;;;;;;;13.20;99.90;;;12.15;100.00;96146.38;10315873;28;1849;-73
2021/12/30 18:11:08;;;;;;;;;;;13.20;99.90;;;12.18;100.00;96151.22;10319176;28;1916;-74
2021/12/30 18:16:11;;;;;;;;;;;13.20;99.90;;;12.13;100.00;96162.81;10313995;28;1825;-74
2021/12/30 18:21:15;;;;;;;;;;;13.20;99.90;;;12.12;100.00;96168.50;10316911;28;2249;-75
2021/12/30 18:26:18;;;;;;;;;;;13.20;99.90;;;12.20;100.00;96169.81;10313454;28;1919;-74
2021/12/30 18:31:22;;;;;;;;;;;13.20;99.90;;;12.15;100.00;96167.94;10312724;28;1920;-74
2021/12/30 18:36:26;;;;;;;;;;;13.30;99.90;;;12.07;100.00;96174.69;10310620;28;1809;-74
2021/12/30 18:41:29;;;;;;;;;;;13.20;99.90;;;12.05;100.00;96176.06;10313871;28;2113;-74
2021/12/30 18:46:33;;;;;;;;;;;13.20;99.90;;;12.07;100.00;96176.59;10315391;28;1864;-74
2021/12/30 18:51:36;;;;;;;;;;;13.20;99.90;;;12.06;100.00;96178.47;10314517;28;1808;-74
2021/12/30 18:56:40;;;;;;;;;;;13.20;99.90;;;12.03;100.00;96183.63;10309547;28;1888;-75
2021/12/30 19:01:44;;;;;;;;;;;13.10;99.90;;;11.98;100.00;96186.31;10314286;28;1914;-74
2021/12/30 19:06:47;;;;;;;;;;;13.10;99.90;;;12.03;100.00;96189.00;10327542;28;1806;-74
2021/12/30 19:11:53;;;;;;;;;;;13.10;99.90;;;12.08;100.00;96180.88;10310145;28;1825;-75
2021/12/30 19:16:57;;;;;;;;;;;13.10;99.90;;;12.12;100.00;96184.66;10313133;28;1892;-73
2021/12/30 19:22:00;;;;;;;;;;;13.20;99.90;;;12.09;100.00;96193.31;10312845;28;1994;-74
2021/12/30 19:27:04;;;;;;;;;;;13.20;99.90;;;12.00;100.00;96195.72;10317072;28;1829;-74
2021/12/30 19:32:07;;;;;;;;;;;13.10;99.90;;;11.83;100.00;96198.72;10322265;28;1930;-74
2021/12/30 19:37:11;;;;;;;;;;;13.00;99.90;;;11.68;100.00;96192.50;10317781;28;1921;-75
2021/12/30 19:42:14;;;;;;;;;;;12.90;99.90;;;11.67;100.00;96191.69;10319938;28;1954;-75
2021/12/30 19:47:17;;;;;;;;;;;12.90;99.90;;;11.58;100.00;96190.63;10324162;28;1856;-74
2021/12/30 19:52:21;;;;;;;;;;;12.80;99.90;;;11.68;100.00;96197.88;10319384;28;2017;-76
2021/12/30 19:57:24;;;;;;;;;;;12.80;99.90;;;11.78;100.00;96208.66;10323066;28;2201;-74
2021/12/30 20:02:28;;;;;;;;;;;12.80;99.90;;;11.80;100.00;96209.19;10323511;28;1977;-75
2021/12/30 20:07:32;;;;;;;;;;;12.90;99.90;;;11.86;100.00;96217.03;10323265;28;1795;-75
2021/12/30 20:12:36;;;;;;;;;;;12.90;99.90;;;11.95;100.00;96213.78;10320641;28;1838;-75
2021/12/30 20:17:40;;;;;;;;;;;13.00;99.90;;;11.88;100.00;96220.25;10320449;28;2268;-73
2021/12/30 20:22:48;;;;;;;;;;;13.00;99.90;;;11.87;100.00;96226.72;10320721;28;2217;-74
2021/12/30 20:27:53;;;;;;;;;;;13.00;99.90;;;11.96;100.00;96242.34;10318055;28;1916;-75
2021/12/30 20:33:01;;;;;;;;;;;13.00;99.90;;;11.96;100.00;96248.56;10319715;28;1785;-75
2021/12/30 20:38:04;;;;;;;;;;;13.00;99.90;;;11.97;100.00;96249.38;10320760;28;1913;-72
2021/12/30 20:43:08;;;;;;;;;;;13.10;99.90;;;12.00;100.00;96259.59;10317138;28;1918;-73
2021/12/30 20:48:12;;;;;;;;;;;13.10;99.90;;;12.07;100.00;96244.75;10323870;28;1860;-75
2021/12/30 20:53:16;;;;;;;;;;;13.10;99.90;;;12.00;100.00;96248.81;10310902;28;1830;-73
2021/12/30 20:58:20;;;;;;;;;;;13.10;99.90;;;12.08;100.00;96253.66;10319362;28;1829;-75
2021/12/30 21:03:25;;;;;;;;;;;13.10;99.90;;;12.10;100.00;96254.19;10331341;28;1931;-75
2021/12/30 21:08:30;;;;;;;;;;;13.10;99.90;;;12.12;100.00;96260.13;10319738;28;1796;-74
2021/12/30 21:13:33;;;;;;;;;;;13.20;99.90;;;12.10;100.00;96268.47;10318158;28;1828;-75
2021/12/30 21:18:37;;;;;;;;;;;13.20;99.90;;;12.07;100.00;96265.50;10316495;28;1930;-76
2021/12/30 21:23:40;;;;;;;;;;;12.90;99.90;;;12.08;100.00;96259.03;10318052;28;1954;-76
2021/12/30 21:28:44;;;;;;;;;;;13.10;99.90;;;12.03;100.00;96267.16;10316069;28;1851;-76
2021/12/30 21:33:47;;;;;;;;;;;13.10;99.90;;;12.10;100.00;96267.69;10320129;28;1885;-75
2021/12/30 21:38:50;;;;;;;;;;;13.20;99.90;;;12.15;100.00;96281.97;10319016;28;1829;-75
2021/12/30 21:43:53;;;;;;;;;;;13.20;99.90;;;12.17;100.00;96282.47;10313281;28;1946;-74
2021/12/30 21:48:57;;;;;;;;;;;13.20;99.90;;;12.05;100.00;96281.94;10308463;28;1840;-74
2021/12/30 21:54:01;;;;;;;;;;;13.20;99.90;;;12.11;100.00;96283.56;10315162;28;1790;-77
2021/12/30 21:59:04;;;;;;;;;;;13.20;99.90;;;12.11;100.00;96286.25;10318530;28;1838;-75
2021/12/30 22:04:08;;;;;;;;;;;13.20;99.90;;;12.03;100.00;96286.00;10311771;28;1926;-75
2021/12/30 22:09:11;;;;;;;;;;;13.20;99.90;;;12.08;100.00;96294.88;10313913;28;1817;-74
2021/12/30 22:14:15;;;;;;;;;;;13.10;99.90;;;12.06;100.00;96298.94;10310679;28;1872;-75
2021/12/30 22:19:18;;;;;;;;;;;13.10;99.90;;;12.05;100.00;96316.97;10312778;28;1912;-75
2021/12/30 22:24:23;;;;;;;;;;;13.20;99.90;;;12.02;100.00;96316.69;10309592;28;1914;-75
2021/12/30 22:29:26;;;;;;;;;;;13.10;99.90;;;11.94;100.00;96330.72;10316839;28;1919;-75
2021/12/30 22:34:30;;;;;;;;;;;13.00;99.90;;;11.78;100.00;96313.72;10312326;28;2185;-76
2021/12/30 22:39:33;;;;;;;;;;;13.00;99.90;;;11.75;100.00;96317.72;10316182;28;1882;-76
2021/12/30 22:44:37;;;;;;;;;;;12.80;99.90;;;11.66;100.00;96313.97;10313721;28;2048;-75
2021/12/30 22:49:41;;;;;;;;;;;12.70;99.90;;;11.56;100.00;96319.31;10325896;28;1896;-75
2021/12/30 22:54:44;;;;;;;;;;;12.70;99.90;;;11.55;100.00;96323.09;10327457;28;1936;-75
2021/12/30 22:59:47;;;;;;;;;;;12.70;99.90;;;11.51;100.00;96322.00;10316814;28;1790;-76
2021/12/30 23:04:51;;;;;;;;;;;12.60;99.90;;;11.53;100.00;96325.25;10315979;28;1984;-74